Terminal Aerodrome Forecast
Issued by NWS

Current Version | Previous Version | Text Only | Print | Product List | Glossary On
Versions: 1 2 3 4 5 6 7 8 9 10 11 12 13 14 15
000
FTUS43 KSGF 040329 AAA
TAFJLN
TAF AMD
KJLN 040329Z 0403/0424 12006KT P6SM -RA BKN015 OVC040
      TEMPO 0404/0407 5SM -RA BR
     FM040700 12006KT 5SM -RA BR OVC015
     FM041400 20004KT P6SM OVC008
     FM041800 30006KT P6SM BKN020
     FM042000 31006KT P6SM BKN040
     FM042200 31005KT P6SM SCT110=

USA.gov is the U.S. government's official web portal to all federal, state and local government web resources and services.